sensor_id;sensor_type;location;lat;lon;timestamp;P1;durP1;ratioP1;P2;durP2;ratioP2
52894;SDS011;38759;53.396;6.722;2023-03-14T00:01:23;46.50;;;6.63;;
52894;SDS011;38759;53.396;6.722;2023-03-14T00:03:50;35.83;;;6.90;;
52894;SDS011;38759;53.396;6.722;2023-03-14T00:06:16;41.03;;;7.22;;
52894;SDS011;38759;53.396;6.722;2023-03-14T00:08:42;35.38;;;7.60;;
52894;SDS011;38759;53.396;6.722;2023-03-14T00:11:13;39.03;;;6.75;;
52894;SDS011;38759;53.396;6.722;2023-03-14T00:13:41;37.40;;;6.80;;
52894;SDS011;38759;53.396;6.722;2023-03-14T00:16:08;40.15;;;7.28;;
52894;SDS011;38759;53.396;6.722;2023-03-14T00:18:36;34.20;;;4.65;;
52894;SDS011;38759;53.396;6.722;2023-03-14T00:21:02;37.80;;;5.00;;
52894;SDS011;38759;53.396;6.722;2023-03-14T00:23:29;36.55;;;6.82;;
52894;SDS011;38759;53.396;6.722;2023-03-14T00:26:01;38.83;;;7.20;;
52894;SDS011;38759;53.396;6.722;2023-03-14T00:28:28;37.17;;;7.13;;
52894;SDS011;38759;53.396;6.722;2023-03-14T00:30:54;35.75;;;6.50;;
52894;SDS011;38759;53.396;6.722;2023-03-14T00:33:20;36.33;;;6.70;;
52894;SDS011;38759;53.396;6.722;2023-03-14T00:36:03;37.88;;;7.07;;
52894;SDS011;38759;53.396;6.722;2023-03-14T00:38:31;31.75;;;6.50;;
52894;SDS011;38759;53.396;6.722;2023-03-14T00:40:57;33.25;;;6.70;;
52894;SDS011;38759;53.396;6.722;2023-03-14T00:43:23;36.30;;;4.80;;
52894;SDS011;38759;53.396;6.722;2023-03-14T00:45:49;38.40;;;6.63;;
52894;SDS011;38759;53.396;6.722;2023-03-14T00:48:16;32.33;;;6.60;;
52894;SDS011;38759;53.396;6.722;2023-03-14T00:50:42;36.58;;;7.07;;
52894;SDS011;38759;53.396;6.722;2023-03-14T00:53:08;35.30;;;6.43;;
52894;SDS011;38759;53.396;6.722;2023-03-14T00:55:37;39.05;;;7.03;;
52894;SDS011;38759;53.396;6.722;2023-03-14T00:58:04;33.70;;;6.60;;
52894;SDS011;38759;53.396;6.722;2023-03-14T01:00:30;25.08;;;4.07;;
52894;SDS011;38759;53.396;6.722;2023-03-14T01:02:55;26.42;;;3.88;;
52894;SDS011;38759;53.396;6.722;2023-03-14T01:05:21;29.08;;;5.90;;
52894;SDS011;38759;53.396;6.722;2023-03-14T01:07:48;35.25;;;7.20;;
52894;SDS011;38759;53.396;6.722;2023-03-14T01:10:13;34.13;;;6.68;;
52894;SDS011;38759;53.396;6.722;2023-03-14T01:12:39;32.30;;;6.53;;
52894;SDS011;38759;53.396;6.722;2023-03-14T01:15:05;30.27;;;6.18;;
52894;SDS011;38759;53.396;6.722;2023-03-14T01:17:31;26.98;;;3.38;;
52894;SDS011;38759;53.396;6.722;2023-03-14T01:19:57;26.25;;;3.90;;
52894;SDS011;38759;53.396;6.722;2023-03-14T01:22:22;34.85;;;5.65;;
52894;SDS011;38759;53.396;6.722;2023-03-14T01:24:48;28.92;;;5.70;;
52894;SDS011;38759;53.396;6.722;2023-03-14T01:27:14;30.67;;;5.95;;
52894;SDS011;38759;53.396;6.722;2023-03-14T01:29:39;28.73;;;6.32;;
52894;SDS011;38759;53.396;6.722;2023-03-14T01:32:05;29.95;;;5.90;;
52894;SDS011;38759;53.396;6.722;2023-03-14T01:34:31;27.55;;;5.57;;
52894;SDS011;38759;53.396;6.722;2023-03-14T01:36:56;27.85;;;5.95;;
52894;SDS011;38759;53.396;6.722;2023-03-14T01:39:22;31.75;;;5.88;;
52894;SDS011;38759;53.396;6.722;2023-03-14T01:41:47;30.85;;;5.80;;
52894;SDS011;38759;53.396;6.722;2023-03-14T01:44:13;24.58;;;3.70;;
52894;SDS011;38759;53.396;6.722;2023-03-14T01:49:21;26.05;;;3.95;;
52894;SDS011;38759;53.396;6.722;2023-03-14T01:54:37;22.05;;;3.85;;
52894;SDS011;38759;53.396;6.722;2023-03-14T01:57:08;23.13;;;3.13;;
52894;SDS011;38759;53.396;6.722;2023-03-14T01:59:39;22.33;;;4.78;;
52894;SDS011;38759;53.396;6.722;2023-03-14T02:02:09;28.95;;;5.32;;
52894;SDS011;38759;53.396;6.722;2023-03-14T02:04:37;27.02;;;4.95;;
52894;SDS011;38759;53.396;6.722;2023-03-14T02:07:20;22.65;;;4.82;;
52894;SDS011;38759;53.396;6.722;2023-03-14T02:12:16;16.98;;;2.70;;
52894;SDS011;38759;53.396;6.722;2023-03-14T02:14:43;25.83;;;4.88;;
52894;SDS011;38759;53.396;6.722;2023-03-14T02:17:13;28.73;;;5.22;;
52894;SDS011;38759;53.396;6.722;2023-03-14T02:22:41;22.63;;;4.75;;
52894;SDS011;38759;53.396;6.722;2023-03-14T02:27:41;20.52;;;3.38;;
52894;SDS011;38759;53.396;6.722;2023-03-14T02:30:10;19.25;;;2.47;;
52894;SDS011;38759;53.396;6.722;2023-03-14T02:32:39;24.65;;;4.60;;
52894;SDS011;38759;53.396;6.722;2023-03-14T02:35:11;17.48;;;3.80;;
52894;SDS011;38759;53.396;6.722;2023-03-14T02:40:31;24.92;;;4.45;;
52894;SDS011;38759;53.396;6.722;2023-03-14T02:42:56;26.63;;;4.10;;
52894;SDS011;38759;53.396;6.722;2023-03-14T02:47:54;20.63;;;3.80;;
52894;SDS011;38759;53.396;6.722;2023-03-14T02:50:28;23.27;;;4.38;;
52894;SDS011;38759;53.396;6.722;2023-03-14T02:52:55;21.52;;;3.72;;
52894;SDS011;38759;53.396;6.722;2023-03-14T02:55:22;22.40;;;3.50;;
52894;SDS011;38759;53.396;6.722;2023-03-14T02:57:48;19.58;;;3.42;;
52894;SDS011;38759;53.396;6.722;2023-03-14T03:00:15;16.98;;;3.67;;
52894;SDS011;38759;53.396;6.722;2023-03-14T03:02:41;20.48;;;2.58;;
52894;SDS011;38759;53.396;6.722;2023-03-14T03:05:07;24.42;;;4.20;;
52894;SDS011;38759;53.396;6.722;2023-03-14T03:07:33;21.23;;;3.80;;
52894;SDS011;38759;53.396;6.722;2023-03-14T03:09:59;19.83;;;4.07;;
52894;SDS011;38759;53.396;6.722;2023-03-14T03:12:24;22.02;;;5.00;;
52894;SDS011;38759;53.396;6.722;2023-03-14T03:14:50;17.17;;;3.70;;
52894;SDS011;38759;53.396;6.722;2023-03-14T03:17:16;17.70;;;3.53;;
52894;SDS011;38759;53.396;6.722;2023-03-14T03:19:42;16.70;;;2.55;;
52894;SDS011;38759;53.396;6.722;2023-03-14T03:22:08;19.27;;;2.75;;
52894;SDS011;38759;53.396;6.722;2023-03-14T03:24:34;19.40;;;3.90;;
52894;SDS011;38759;53.396;6.722;2023-03-14T03:26:59;13.30;;;2.63;;
52894;SDS011;38759;53.396;6.722;2023-03-14T03:29:25;20.17;;;3.80;;
52894;SDS011;38759;53.396;6.722;2023-03-14T03:31:51;20.05;;;4.05;;
52894;SDS011;38759;53.396;6.722;2023-03-14T03:34:16;17.58;;;4.10;;
52894;SDS011;38759;53.396;6.722;2023-03-14T03:36:42;21.58;;;3.88;;
52894;SDS011;38759;53.396;6.722;2023-03-14T03:39:08;19.98;;;3.97;;
52894;SDS011;38759;53.396;6.722;2023-03-14T03:41:33;22.05;;;4.35;;
52894;SDS011;38759;53.396;6.722;2023-03-14T03:43:59;13.15;;;3.78;;
52894;SDS011;38759;53.396;6.722;2023-03-14T03:46:25;18.00;;;4.55;;
52894;SDS011;38759;53.396;6.722;2023-03-14T03:48:54;20.33;;;4.78;;
52894;SDS011;38759;53.396;6.722;2023-03-14T03:51:21;20.17;;;4.70;;
52894;SDS011;38759;53.396;6.722;2023-03-14T03:53:46;17.00;;;3.80;;
52894;SDS011;38759;53.396;6.722;2023-03-14T03:56:12;18.45;;;3.97;;
52894;SDS011;38759;53.396;6.722;2023-03-14T03:58:38;15.48;;;3.50;;
52894;SDS011;38759;53.396;6.722;2023-03-14T04:01:04;16.60;;;4.50;;
52894;SDS011;38759;53.396;6.722;2023-03-14T04:03:31;22.17;;;5.28;;
52894;SDS011;38759;53.396;6.722;2023-03-14T04:06:01;17.85;;;4.13;;
52894;SDS011;38759;53.396;6.722;2023-03-14T04:08:29;15.40;;;3.80;;
52894;SDS011;38759;53.396;6.722;2023-03-14T04:10:58;19.38;;;4.47;;
52894;SDS011;38759;53.396;6.722;2023-03-14T04:13:25;25.50;;;4.20;;
52894;SDS011;38759;53.396;6.722;2023-03-14T04:15:52;21.02;;;3.85;;
52894;SDS011;38759;53.396;6.722;2023-03-14T04:18:18;30.98;;;5.82;;
52894;SDS011;38759;53.396;6.722;2023-03-14T04:20:45;33.83;;;6.40;;
52894;SDS011;38759;53.396;6.722;2023-03-14T04:23:10;29.33;;;5.82;;
52894;SDS011;38759;53.396;6.722;2023-03-14T04:25:36;34.00;;;6.15;;
52894;SDS011;38759;53.396;6.722;2023-03-14T04:28:02;28.35;;;4.10;;
52894;SDS011;38759;53.396;6.722;2023-03-14T04:30:29;19.17;;;4.63;;
52894;SDS011;38759;53.396;6.722;2023-03-14T04:32:55;20.27;;;4.10;;
52894;SDS011;38759;53.396;6.722;2023-03-14T04:35:20;31.58;;;5.88;;
52894;SDS011;38759;53.396;6.722;2023-03-14T04:37:46;37.22;;;6.63;;
52894;SDS011;38759;53.396;6.722;2023-03-14T04:40:14;36.70;;;6.68;;
52894;SDS011;38759;53.396;6.722;2023-03-14T04:42:40;22.88;;;4.10;;
52894;SDS011;38759;53.396;6.722;2023-03-14T04:45:06;27.92;;;4.50;;
52894;SDS011;38759;53.396;6.722;2023-03-14T04:47:32;28.92;;;5.07;;
52894;SDS011;38759;53.396;6.722;2023-03-14T04:49:58;27.25;;;4.47;;
52894;SDS011;38759;53.396;6.722;2023-03-14T04:52:24;31.90;;;6.07;;
52894;SDS011;38759;53.396;6.722;2023-03-14T04:54:50;29.80;;;5.55;;
52894;SDS011;38759;53.396;6.722;2023-03-14T04:57:16;29.83;;;4.45;;
52894;SDS011;38759;53.396;6.722;2023-03-14T04:59:42;31.25;;;5.00;;
52894;SDS011;38759;53.396;6.722;2023-03-14T05:02:08;38.38;;;6.50;;
52894;SDS011;38759;53.396;6.722;2023-03-14T05:04:33;23.52;;;4.88;;
52894;SDS011;38759;53.396;6.722;2023-03-14T05:06:59;21.70;;;4.50;;
52894;SDS011;38759;53.396;6.722;2023-03-14T05:09:25;27.55;;;6.65;;
52894;SDS011;38759;53.396;6.722;2023-03-14T05:11:51;32.40;;;6.88;;
52894;SDS011;38759;53.396;6.722;2023-03-14T05:14:17;24.38;;;6.47;;
52894;SDS011;38759;53.396;6.722;2023-03-14T05:16:43;26.55;;;5.75;;
52894;SDS011;38759;53.396;6.722;2023-03-14T05:19:09;30.67;;;7.43;;
52894;SDS011;38759;53.396;6.722;2023-03-14T05:21:36;19.08;;;4.10;;
52894;SDS011;38759;53.396;6.722;2023-03-14T05:24:01;18.70;;;5.63;;
52894;SDS011;38759;53.396;6.722;2023-03-14T05:26:27;17.23;;;5.10;;
52894;SDS011;38759;53.396;6.722;2023-03-14T05:28:53;17.67;;;5.18;;
52894;SDS011;38759;53.396;6.722;2023-03-14T05:31:19;26.13;;;7.93;;
52894;SDS011;38759;53.396;6.722;2023-03-14T05:33:44;18.88;;;6.88;;
52894;SDS011;38759;53.396;6.722;2023-03-14T05:36:10;24.13;;;5.82;;
52894;SDS011;38759;53.396;6.722;2023-03-14T05:38:36;18.25;;;5.55;;
52894;SDS011;38759;53.396;6.722;2023-03-14T05:41:01;18.95;;;7.78;;
52894;SDS011;38759;53.396;6.722;2023-03-14T05:43:27;16.65;;;7.50;;
52894;SDS011;38759;53.396;6.722;2023-03-14T05:45:53;15.48;;;7.70;;
52894;SDS011;38759;53.396;6.722;2023-03-14T05:48:19;14.13;;;7.22;;
52894;SDS011;38759;53.396;6.722;2023-03-14T05:50:44;17.92;;;7.00;;
52894;SDS011;38759;53.396;6.722;2023-03-14T05:53:10;8.57;;;4.00;;
52894;SDS011;38759;53.396;6.722;2023-03-14T05:55:36;12.45;;;4.15;;
52894;SDS011;38759;53.396;6.722;2023-03-14T05:58:01;11.05;;;3.70;;
52894;SDS011;38759;53.396;6.722;2023-03-14T06:00:27;8.23;;;4.57;;
52894;SDS011;38759;53.396;6.722;2023-03-14T06:02:52;10.55;;;5.28;;
52894;SDS011;38759;53.396;6.722;2023-03-14T06:05:18;7.68;;;4.32;;
52894;SDS011;38759;53.396;6.722;2023-03-14T06:07:44;12.70;;;4.60;;
52894;SDS011;38759;53.396;6.722;2023-03-14T06:10:10;6.30;;;3.42;;
52894;SDS011;38759;53.396;6.722;2023-03-14T06:12:35;8.30;;;3.80;;
52894;SDS011;38759;53.396;6.722;2023-03-14T06:15:01;11.65;;;4.72;;
52894;SDS011;38759;53.396;6.722;2023-03-14T06:17:27;6.95;;;3.40;;
52894;SDS011;38759;53.396;6.722;2023-03-14T06:19:52;5.57;;;2.60;;
52894;SDS011;38759;53.396;6.722;2023-03-14T06:22:18;7.72;;;1.80;;
52894;SDS011;38759;53.396;6.722;2023-03-14T06:24:44;17.02;;;2.83;;
52894;SDS011;38759;53.396;6.722;2023-03-14T06:27:10;29.40;;;3.28;;
52894;SDS011;38759;53.396;6.722;2023-03-14T06:29:36;24.00;;;2.30;;
52894;SDS011;38759;53.396;6.722;2023-03-14T06:32:01;18.55;;;2.53;;
52894;SDS011;38759;53.396;6.722;2023-03-14T06:34:27;18.88;;;2.05;;
52894;SDS011;38759;53.396;6.722;2023-03-14T06:36:53;29.65;;;2.42;;
52894;SDS011;38759;53.396;6.722;2023-03-14T06:39:18;33.05;;;2.70;;
52894;SDS011;38759;53.396;6.722;2023-03-14T06:41:44;24.98;;;2.33;;
52894;SDS011;38759;53.396;6.722;2023-03-14T06:44:10;32.30;;;2.70;;
52894;SDS011;38759;53.396;6.722;2023-03-14T06:46:35;22.52;;;2.33;;
52894;SDS011;38759;53.396;6.722;2023-03-14T06:49:01;25.10;;;1.80;;
52894;SDS011;38759;53.396;6.722;2023-03-14T06:51:27;38.85;;;4.00;;
52894;SDS011;38759;53.396;6.722;2023-03-14T06:53:53;17.10;;;1.90;;
52894;SDS011;38759;53.396;6.722;2023-03-14T06:56:19;17.50;;;1.60;;
52894;SDS011;38759;53.396;6.722;2023-03-14T06:58:44;16.70;;;1.85;;
52894;SDS011;38759;53.396;6.722;2023-03-14T07:01:31;6.78;;;1.25;;
52894;SDS011;38759;53.396;6.722;2023-03-14T07:03:57;14.90;;;1.88;;
52894;SDS011;38759;53.396;6.722;2023-03-14T07:06:23;18.30;;;1.58;;
52894;SDS011;38759;53.396;6.722;2023-03-14T07:08:50;9.40;;;1.30;;
52894;SDS011;38759;53.396;6.722;2023-03-14T07:11:15;8.63;;;1.08;;
52894;SDS011;38759;53.396;6.722;2023-03-14T07:13:41;11.98;;;1.08;;
52894;SDS011;38759;53.396;6.722;2023-03-14T07:16:07;5.15;;;0.82;;
52894;SDS011;38759;53.396;6.722;2023-03-14T07:18:33;6.80;;;0.70;;
52894;SDS011;38759;53.396;6.722;2023-03-14T07:20:59;6.03;;;0.70;;
52894;SDS011;38759;53.396;6.722;2023-03-14T07:23:25;6.57;;;0.63;;
52894;SDS011;38759;53.396;6.722;2023-03-14T07:25:50;5.47;;;0.60;;
52894;SDS011;38759;53.396;6.722;2023-03-14T07:28:18;5.25;;;0.80;;
52894;SDS011;38759;53.396;6.722;2023-03-14T07:30:45;6.72;;;0.82;;
52894;SDS011;38759;53.396;6.722;2023-03-14T07:33:12;8.82;;;0.88;;
52894;SDS011;38759;53.396;6.722;2023-03-14T07:35:38;7.55;;;0.38;;
52894;SDS011;38759;53.396;6.722;2023-03-14T07:38:03;2.55;;;0.40;;
52894;SDS011;38759;53.396;6.722;2023-03-14T07:40:29;5.05;;;0.47;;
52894;SDS011;38759;53.396;6.722;2023-03-14T07:42:55;3.83;;;0.63;;
52894;SDS011;38759;53.396;6.722;2023-03-14T07:45:20;5.90;;;0.90;;
52894;SDS011;38759;53.396;6.722;2023-03-14T07:47:46;6.15;;;0.60;;
52894;SDS011;38759;53.396;6.722;2023-03-14T07:50:15;4.03;;;0.60;;
52894;SDS011;38759;53.396;6.722;2023-03-14T07:52:41;3.88;;;0.40;;
52894;SDS011;38759;53.396;6.722;2023-03-14T07:55:07;6.15;;;0.85;;
52894;SDS011;38759;53.396;6.722;2023-03-14T07:57:33;2.30;;;0.32;;
52894;SDS011;38759;53.396;6.722;2023-03-14T07:59:59;6.72;;;1.15;;
52894;SDS011;38759;53.396;6.722;2023-03-14T08:02:24;3.65;;;0.50;;
52894;SDS011;38759;53.396;6.722;2023-03-14T08:04:50;7.07;;;1.00;;
52894;SDS011;38759;53.396;6.722;2023-03-14T08:07:16;4.43;;;0.73;;
52894;SDS011;38759;53.396;6.722;2023-03-14T08:09:41;4.63;;;0.70;;
52894;SDS011;38759;53.396;6.722;2023-03-14T08:12:07;11.90;;;1.08;;
52894;SDS011;38759;53.396;6.722;2023-03-14T08:14:33;8.63;;;0.88;;
52894;SDS011;38759;53.396;6.722;2023-03-14T08:16:59;9.70;;;1.38;;
52894;SDS011;38759;53.396;6.722;2023-03-14T08:19:24;12.45;;;1.30;;
52894;SDS011;38759;53.396;6.722;2023-03-14T08:21:50;10.00;;;1.13;;
52894;SDS011;38759;53.396;6.722;2023-03-14T08:24:16;9.00;;;1.35;;
52894;SDS011;38759;53.396;6.722;2023-03-14T08:26:42;7.70;;;1.10;;
52894;SDS011;38759;53.396;6.722;2023-03-14T08:29:08;10.77;;;1.52;;
52894;SDS011;38759;53.396;6.722;2023-03-14T08:31:34;12.63;;;1.60;;
52894;SDS011;38759;53.396;6.722;2023-03-14T08:34:00;10.95;;;1.45;;
52894;SDS011;38759;53.396;6.722;2023-03-14T08:36:27;13.05;;;1.85;;
52894;SDS011;38759;53.396;6.722;2023-03-14T08:38:53;10.00;;;1.35;;
52894;SDS011;38759;53.396;6.722;2023-03-14T08:41:19;10.23;;;1.30;;
52894;SDS011;38759;53.396;6.722;2023-03-14T08:43:45;12.68;;;1.98;;
52894;SDS011;38759;53.396;6.722;2023-03-14T08:46:11;17.45;;;1.70;;
52894;SDS011;38759;53.396;6.722;2023-03-14T08:48:36;14.05;;;1.73;;
52894;SDS011;38759;53.396;6.722;2023-03-14T08:51:09;13.30;;;1.70;;
52894;SDS011;38759;53.396;6.722;2023-03-14T08:53:37;25.43;;;2.07;;
52894;SDS011;38759;53.396;6.722;2023-03-14T08:56:04;34.70;;;4.43;;
52894;SDS011;38759;53.396;6.722;2023-03-14T08:58:31;16.73;;;2.20;;
52894;SDS011;38759;53.396;6.722;2023-03-14T09:00:57;22.08;;;2.28;;
52894;SDS011;38759;53.396;6.722;2023-03-14T09:03:24;16.17;;;1.85;;
52894;SDS011;38759;53.396;6.722;2023-03-14T09:05:51;20.55;;;2.00;;
52894;SDS011;38759;53.396;6.722;2023-03-14T09:08:17;12.90;;;1.70;;
52894;SDS011;38759;53.396;6.722;2023-03-14T09:10:43;18.60;;;1.88;;
52894;SDS011;38759;53.396;6.722;2023-03-14T09:13:08;20.65;;;2.30;;
52894;SDS011;38759;53.396;6.722;2023-03-14T09:15:34;22.45;;;2.10;;
52894;SDS011;38759;53.396;6.722;2023-03-14T09:18:00;32.22;;;3.40;;
52894;SDS011;38759;53.396;6.722;2023-03-14T09:20:26;20.63;;;2.25;;
52894;SDS011;38759;53.396;6.722;2023-03-14T09:22:53;20.73;;;2.42;;
52894;SDS011;38759;53.396;6.722;2023-03-14T09:25:19;22.25;;;2.63;;
52894;SDS011;38759;53.396;6.722;2023-03-14T09:27:44;29.30;;;2.53;;
52894;SDS011;38759;53.396;6.722;2023-03-14T09:30:10;27.02;;;3.15;;
52894;SDS011;38759;53.396;6.722;2023-03-14T09:32:37;20.10;;;3.47;;
52894;SDS011;38759;53.396;6.722;2023-03-14T09:35:03;20.95;;;2.10;;
52894;SDS011;38759;53.396;6.722;2023-03-14T09:37:29;36.25;;;5.35;;
52894;SDS011;38759;53.396;6.722;2023-03-14T09:39:55;22.08;;;2.78;;
52894;SDS011;38759;53.396;6.722;2023-03-14T09:42:21;32.40;;;3.30;;
52894;SDS011;38759;53.396;6.722;2023-03-14T09:44:57;20.40;;;2.88;;
52894;SDS011;38759;53.396;6.722;2023-03-14T09:47:26;27.58;;;3.05;;
52894;SDS011;38759;53.396;6.722;2023-03-14T09:49:52;28.63;;;3.13;;
52894;SDS011;38759;53.396;6.722;2023-03-14T09:52:23;28.42;;;2.50;;
52894;SDS011;38759;53.396;6.722;2023-03-14T09:54:54;17.35;;;2.25;;
52894;SDS011;38759;53.396;6.722;2023-03-14T09:57:29;28.75;;;3.22;;
52894;SDS011;38759;53.396;6.722;2023-03-14T09:59:58;33.58;;;5.28;;
52894;SDS011;38759;53.396;6.722;2023-03-14T10:02:38;30.35;;;4.70;;
52894;SDS011;38759;53.396;6.722;2023-03-14T10:05:07;24.42;;;2.58;;
52894;SDS011;38759;53.396;6.722;2023-03-14T10:07:39;23.15;;;2.47;;
52894;SDS011;38759;53.396;6.722;2023-03-14T10:10:09;21.80;;;3.15;;
52894;SDS011;38759;53.396;6.722;2023-03-14T10:12:41;27.70;;;3.20;;
52894;SDS011;38759;53.396;6.722;2023-03-14T10:15:11;17.63;;;2.47;;
52894;SDS011;38759;53.396;6.722;2023-03-14T10:17:44;16.85;;;2.38;;
52894;SDS011;38759;53.396;6.722;2023-03-14T10:23:00;13.32;;;1.92;;
52894;SDS011;38759;53.396;6.722;2023-03-14T10:25:29;14.82;;;1.92;;
52894;SDS011;38759;53.396;6.722;2023-03-14T10:28:10;13.80;;;2.00;;
52894;SDS011;38759;53.396;6.722;2023-03-14T10:30:55;14.68;;;1.77;;
52894;SDS011;38759;53.396;6.722;2023-03-14T10:33:23;20.02;;;3.60;;
52894;SDS011;38759;53.396;6.722;2023-03-14T10:35:58;12.10;;;1.50;;
52894;SDS011;38759;53.396;6.722;2023-03-14T10:38:31;10.98;;;2.15;;
52894;SDS011;38759;53.396;6.722;2023-03-14T10:41:01;18.25;;;2.10;;
52894;SDS011;38759;53.396;6.722;2023-03-14T10:43:31;18.77;;;2.08;;
52894;SDS011;38759;53.396;6.722;2023-03-14T10:45:59;23.20;;;1.83;;
52894;SDS011;38759;53.396;6.722;2023-03-14T10:48:43;18.00;;;2.30;;
52894;SDS011;38759;53.396;6.722;2023-03-14T10:56:11;15.65;;;2.00;;
52894;SDS011;38759;53.396;6.722;2023-03-14T10:58:51;11.85;;;1.48;;
52894;SDS011;38759;53.396;6.722;2023-03-14T11:07:19;11.32;;;1.45;;
52894;SDS011;38759;53.396;6.722;2023-03-14T11:21:31;9.95;;;1.63;;
52894;SDS011;38759;53.396;6.722;2023-03-14T11:27:03;10.02;;;1.58;;
52894;SDS011;38759;53.396;6.722;2023-03-14T11:29:41;8.25;;;1.35;;
52894;SDS011;38759;53.396;6.722;2023-03-14T11:35:26;7.40;;;1.08;;
52894;SDS011;38759;53.396;6.722;2023-03-14T11:40:51;7.70;;;1.20;;
52894;SDS011;38759;53.396;6.722;2023-03-14T11:43:29;6.80;;;1.00;;
52894;SDS011;38759;53.396;6.722;2023-03-14T11:46:20;9.82;;;1.40;;
52894;SDS011;38759;53.396;6.722;2023-03-14T11:48:58;12.70;;;1.20;;
52894;SDS011;38759;53.396;6.722;2023-03-14T11:51:49;11.93;;;1.65;;
52894;SDS011;38759;53.396;6.722;2023-03-14T11:57:03;12.40;;;1.70;;
52894;SDS011;38759;53.396;6.722;2023-03-14T11:59:52;15.52;;;1.80;;
52894;SDS011;38759;53.396;6.722;2023-03-14T12:13:16;15.05;;;1.70;;
52894;SDS011;38759;53.396;6.722;2023-03-14T12:15:49;11.27;;;1.80;;
52894;SDS011;38759;53.396;6.722;2023-03-14T12:18:21;9.65;;;1.35;;
52894;SDS011;38759;53.396;6.722;2023-03-14T12:20:57;13.73;;;1.88;;
52894;SDS011;38759;53.396;6.722;2023-03-14T12:23:33;13.63;;;2.20;;
52894;SDS011;38759;53.396;6.722;2023-03-14T12:28:37;13.98;;;1.73;;
52894;SDS011;38759;53.396;6.722;2023-03-14T12:34:02;12.20;;;1.90;;
52894;SDS011;38759;53.396;6.722;2023-03-14T12:42:11;9.18;;;1.88;;
52894;SDS011;38759;53.396;6.722;2023-03-14T12:44:42;5.97;;;1.05;;
52894;SDS011;38759;53.396;6.722;2023-03-14T12:49:43;8.00;;;1.17;;
52894;SDS011;38759;53.396;6.722;2023-03-14T12:52:30;10.25;;;1.40;;
52894;SDS011;38759;53.396;6.722;2023-03-14T12:55:10;10.18;;;1.52;;
52894;SDS011;38759;53.396;6.722;2023-03-14T12:58:23;12.60;;;2.45;;
52894;SDS011;38759;53.396;6.722;2023-03-14T13:00:44;8.40;;;1.58;;
52894;SDS011;38759;53.396;6.722;2023-03-14T13:03:17;12.88;;;1.65;;
52894;SDS011;38759;53.396;6.722;2023-03-14T13:05:57;8.32;;;1.65;;
52894;SDS011;38759;53.396;6.722;2023-03-14T13:10:59;10.02;;;1.55;;
52894;SDS011;38759;53.396;6.722;2023-03-14T13:13:27;14.18;;;2.55;;
52894;SDS011;38759;53.396;6.722;2023-03-14T13:15:54;11.88;;;1.55;;
52894;SDS011;38759;53.396;6.722;2023-03-14T13:21:03;5.82;;;1.48;;
52894;SDS011;38759;53.396;6.722;2023-03-14T13:23:37;10.07;;;1.33;;
52894;SDS011;38759;53.396;6.722;2023-03-14T13:26:05;11.00;;;1.38;;
52894;SDS011;38759;53.396;6.722;2023-03-14T13:28:38;11.18;;;1.73;;
52894;SDS011;38759;53.396;6.722;2023-03-14T13:31:04;8.70;;;1.20;;
52894;SDS011;38759;53.396;6.722;2023-03-14T13:33:32;3.47;;;1.20;;
52894;SDS011;38759;53.396;6.722;2023-03-14T13:36:00;11.02;;;2.10;;
52894;SDS011;38759;53.396;6.722;2023-03-14T13:38:30;12.40;;;1.58;;
52894;SDS011;38759;53.396;6.722;2023-03-14T13:40:58;7.25;;;1.40;;
52894;SDS011;38759;53.396;6.722;2023-03-14T13:43:27;11.50;;;2.10;;
52894;SDS011;38759;53.396;6.722;2023-03-14T13:48:29;14.10;;;2.22;;
52894;SDS011;38759;53.396;6.722;2023-03-14T13:51:07;9.82;;;2.25;;
52894;SDS011;38759;53.396;6.722;2023-03-14T13:53:50;18.00;;;2.17;;
52894;SDS011;38759;53.396;6.722;2023-03-14T13:56:18;14.05;;;1.33;;
52894;SDS011;38759;53.396;6.722;2023-03-14T13:58:45;12.48;;;2.58;;
52894;SDS011;38759;53.396;6.722;2023-03-14T14:03:52;14.85;;;1.92;;
52894;SDS011;38759;53.396;6.722;2023-03-14T14:09:02;11.85;;;2.08;;
52894;SDS011;38759;53.396;6.722;2023-03-14T14:11:45;10.77;;;1.42;;
52894;SDS011;38759;53.396;6.722;2023-03-14T14:14:26;11.07;;;1.50;;
52894;SDS011;38759;53.396;6.722;2023-03-14T14:16:53;8.70;;;2.33;;
52894;SDS011;38759;53.396;6.722;2023-03-14T14:19:20;15.70;;;1.65;;
52894;SDS011;38759;53.396;6.722;2023-03-14T14:21:48;12.60;;;2.42;;
52894;SDS011;38759;53.396;6.722;2023-03-14T14:24:14;15.80;;;2.78;;
52894;SDS011;38759;53.396;6.722;2023-03-14T14:26:48;16.42;;;2.65;;
52894;SDS011;38759;53.396;6.722;2023-03-14T14:29:30;9.55;;;1.52;;
52894;SDS011;38759;53.396;6.722;2023-03-14T14:32:00;9.98;;;1.60;;
52894;SDS011;38759;53.396;6.722;2023-03-14T14:37:14;9.63;;;1.90;;
52894;SDS011;38759;53.396;6.722;2023-03-14T14:40:00;15.15;;;1.52;;
52894;SDS011;38759;53.396;6.722;2023-03-14T14:42:35;9.90;;;1.45;;
52894;SDS011;38759;53.396;6.722;2023-03-14T14:45:05;15.90;;;1.85;;
52894;SDS011;38759;53.396;6.722;2023-03-14T14:47:47;16.42;;;1.67;;
52894;SDS011;38759;53.396;6.722;2023-03-14T14:55:44;12.52;;;1.25;;
52894;SDS011;38759;53.396;6.722;2023-03-14T14:58:29;10.45;;;1.63;;
52894;SDS011;38759;53.396;6.722;2023-03-14T15:03:47;10.23;;;1.30;;
52894;SDS011;38759;53.396;6.722;2023-03-14T15:06:17;8.40;;;1.38;;
52894;SDS011;38759;53.396;6.722;2023-03-14T15:08:45;16.50;;;1.33;;
52894;SDS011;38759;53.396;6.722;2023-03-14T15:11:22;13.77;;;2.25;;
52894;SDS011;38759;53.396;6.722;2023-03-14T15:13:53;17.63;;;1.98;;
52894;SDS011;38759;53.396;6.722;2023-03-14T15:16:38;6.82;;;1.02;;
52894;SDS011;38759;53.396;6.722;2023-03-14T15:19:12;13.57;;;1.77;;
52894;SDS011;38759;53.396;6.722;2023-03-14T15:21:48;5.30;;;1.38;;
52894;SDS011;38759;53.396;6.722;2023-03-14T15:24:14;7.57;;;1.00;;
52894;SDS011;38759;53.396;6.722;2023-03-14T15:26:39;16.38;;;1.38;;
52894;SDS011;38759;53.396;6.722;2023-03-14T15:29:05;12.98;;;2.28;;
52894;SDS011;38759;53.396;6.722;2023-03-14T15:31:33;10.63;;;1.20;;
52894;SDS011;38759;53.396;6.722;2023-03-14T15:34:00;7.15;;;1.33;;
52894;SDS011;38759;53.396;6.722;2023-03-14T15:36:30;8.30;;;1.05;;
52894;SDS011;38759;53.396;6.722;2023-03-14T15:38:58;10.68;;;1.35;;
52894;SDS011;38759;53.396;6.722;2023-03-14T15:41:24;8.13;;;1.33;;
52894;SDS011;38759;53.396;6.722;2023-03-14T15:43:50;6.95;;;1.17;;
52894;SDS011;38759;53.396;6.722;2023-03-14T15:46:16;12.85;;;1.20;;
52894;SDS011;38759;53.396;6.722;2023-03-14T15:48:46;11.00;;;1.70;;
52894;SDS011;38759;53.396;6.722;2023-03-14T15:51:13;10.70;;;1.17;;
52894;SDS011;38759;53.396;6.722;2023-03-14T15:53:39;8.32;;;1.23;;
52894;SDS011;38759;53.396;6.722;2023-03-14T15:56:06;10.68;;;1.77;;
52894;SDS011;38759;53.396;6.722;2023-03-14T15:58:36;7.25;;;1.45;;
52894;SDS011;38759;53.396;6.722;2023-03-14T16:01:05;17.45;;;2.45;;
52894;SDS011;38759;53.396;6.722;2023-03-14T16:03:33;12.23;;;1.80;;
52894;SDS011;38759;53.396;6.722;2023-03-14T16:06:00;14.57;;;2.08;;
52894;SDS011;38759;53.396;6.722;2023-03-14T16:08:27;15.02;;;1.73;;
52894;SDS011;38759;53.396;6.722;2023-03-14T16:10:54;9.88;;;1.40;;
52894;SDS011;38759;53.396;6.722;2023-03-14T16:13:21;8.70;;;1.42;;
52894;SDS011;38759;53.396;6.722;2023-03-14T16:18:23;11.60;;;1.70;;
52894;SDS011;38759;53.396;6.722;2023-03-14T16:20:53;13.70;;;1.60;;
52894;SDS011;38759;53.396;6.722;2023-03-14T16:23:23;8.00;;;1.30;;
52894;SDS011;38759;53.396;6.722;2023-03-14T16:25:49;9.23;;;1.27;;
52894;SDS011;38759;53.396;6.722;2023-03-14T16:28:15;10.25;;;1.25;;
52894;SDS011;38759;53.396;6.722;2023-03-14T16:30:41;14.10;;;1.80;;
52894;SDS011;38759;53.396;6.722;2023-03-14T16:33:07;15.77;;;1.25;;